Time;durP1;ratioP1;P1;durP2;ratioP2;P2;SDS_P1;SDS_P2;PMS_P1;PMS_P2;Temp;Humidity;BMP_temperature;BMP_pressure;BME280_temperature;BME280_humidity;BME280_pressure;Samples;Min_cycle;Max_cycle;Signal;HPM_P1;HPM_P2
2022/08/22 00:02:02;;;;;;;28.55;2.47;;;;;;;20.27;100.00;99258.18;1753456;79;20902;-52
2022/08/22 00:04:48;;;;;;;28.60;2.42;;;;;;;20.27;100.00;99256.81;1751251;79;20891;-53
2022/08/22 00:07:20;;;;;;;25.82;1.77;;;;;;;20.25;100.00;99248.75;1751987;79;20887;-52
2022/08/22 00:10:04;;;;;;;32.05;3.55;;;;;;;20.24;100.00;99248.93;1748148;79;20969;-52
2022/08/22 00:12:42;;;;;;;36.95;4.28;;;;;;;20.20;100.00;99245.62;1750241;79;21115;-52
2022/08/22 00:15:27;;;;;;;22.02;2.85;;;;;;;20.16;100.00;99244.17;1755603;79;20910;-53
2022/08/22 00:18:09;;;;;;;23.90;2.45;;;;;;;20.14;100.00;99250.31;1751802;79;20897;-52
2022/08/22 00:21:09;;;;;;;19.02;2.37;;;;;;;20.12;100.00;99246.86;1749450;79;21024;-52
2022/08/22 00:23:51;;;;;;;20.97;2.95;;;;;;;20.10;100.00;99247.50;1755131;79;21057;-53
2022/08/22 00:26:32;;;;;;;31.68;2.20;;;;;;;20.08;100.00;99254.97;1743464;79;21573;-52
2022/08/22 00:29:05;;;;;;;16.82;2.45;;;;;;;20.07;100.00;99265.57;1745895;79;20941;-52
2022/08/22 00:31:41;;;;;;;19.85;2.65;;;;;;;20.08;100.00;99265.03;1749996;79;20981;-52
2022/08/22 00:34:22;;;;;;;24.00;1.75;;;;;;;20.08;100.00;99261.80;1752395;79;21350;-52
2022/08/22 00:37:34;;;;;;;19.23;2.58;;;;;;;20.11;100.00;99263.39;1736368;79;21522;-53
2022/08/22 00:40:36;;;;;;;22.30;1.98;;;;;;;20.11;100.00;99266.98;1756738;79;21895;-53
2022/08/22 00:43:31;;;;;;;19.70;2.87;;;;;;;20.11;100.00;99259.29;1748586;79;21104;-53
2022/08/22 00:46:24;;;;;;;21.15;1.98;;;;;;;20.09;100.00;99264.89;1752047;79;21613;-53
2022/08/22 00:49:24;;;;;;;20.68;1.90;;;;;;;20.05;100.00;99268.95;1740144;79;21479;-53
2022/08/22 00:52:05;;;;;;;19.95;2.20;;;;;;;20.02;100.00;99268.72;1743632;79;21068;-52
2022/08/22 00:55:09;;;;;;;19.17;1.90;;;;;;;19.99;100.00;99271.73;1746486;79;21634;-52
2022/08/22 00:58:19;;;;;;;38.23;3.70;;;;;;;19.98;100.00;99276.00;1745067;79;21484;-52
2022/08/22 01:00:51;;;;;;;15.90;2.10;;;;;;;19.96;100.00;99272.04;1753885;79;21098;-53
2022/08/22 01:03:40;;;;;;;20.02;1.80;;;;;;;19.95;100.00;99273.55;1746995;80;21048;-52
2022/08/22 01:06:49;;;;;;;19.12;1.30;;;;;;;19.93;100.00;99268.22;1742163;79;21013;-52
2022/08/22 01:09:36;;;;;;;19.07;2.05;;;;;;;19.93;100.00;99275.05;1745717;79;21563;-53
2022/08/22 01:12:17;;;;;;;29.07;2.27;;;;;;;19.91;100.00;99270.73;1750994;79;21037;-52
2022/08/22 01:14:53;;;;;;;18.65;2.02;;;;;;;19.91;100.00;99274.83;1749404;79;21029;-52
2022/08/22 01:17:47;;;;;;;20.85;1.77;;;;;;;19.87;100.00;99267.45;1742059;79;21096;-53
2022/08/22 01:20:37;;;;;;;16.85;1.95;;;;;;;19.85;100.00;99276.28;1743665;79;20969;-53
2022/08/22 01:23:29;;;;;;;17.77;2.90;;;;;;;19.80;100.00;99279.09;1747615;79;21126;-52
2022/08/22 01:26:39;;;;;;;32.75;2.33;;;;;;;19.76;100.00;99279.00;1742850;79;21026;-52
2022/08/22 01:29:30;;;;;;;18.67;2.10;;;;;;;19.73;100.00;99271.98;1741366;79;21374;-52
2022/08/22 01:32:16;;;;;;;19.37;1.92;;;;;;;19.70;100.00;99274.98;1751277;79;21085;-53
2022/08/22 01:34:58;;;;;;;14.07;1.30;;;;;;;19.68;100.00;99274.77;1745815;79;21073;-52
2022/08/22 01:38:01;;;;;;;15.95;1.30;;;;;;;19.65;100.00;99274.03;1745587;79;21175;-53
2022/08/22 01:41:05;;;;;;;19.30;1.25;;;;;;;19.66;100.00;99273.53;1746094;79;21538;-51
2022/08/22 01:43:47;;;;;;;17.25;1.42;;;;;;;19.64;100.00;99275.06;1746667;79;21116;-53
2022/08/22 01:46:43;;;;;;;12.80;1.57;;;;;;;19.63;100.00;99269.75;1749223;79;21033;-52
2022/08/22 01:49:38;;;;;;;14.35;2.02;;;;;;;19.62;100.00;99267.52;1741683;79;21041;-52
2022/08/22 01:52:36;;;;;;;12.63;1.40;;;;;;;19.62;100.00;99267.52;1761929;79;21854;-53
2022/08/22 01:55:14;;;;;;;19.87;2.27;;;;;;;19.60;100.00;99270.02;1743533;79;20969;-52
2022/08/22 01:57:56;;;;;;;11.25;1.72;;;;;;;19.52;100.00;99276.19;1740570;79;21310;-52
2022/08/22 02:00:23;;;;;;;12.98;2.00;;;;;;;19.45;100.00;99276.87;1745043;79;21064;-53
2022/08/22 02:03:25;;;;;;;15.15;1.52;;;;;;;19.38;100.00;99275.72;1747112;79;21100;-52
2022/08/22 02:06:06;;;;;;;16.17;1.22;;;;;;;19.35;100.00;99269.16;1746356;79;21108;-52
2022/08/22 02:08:49;;;;;;;12.10;1.30;;;;;;;19.30;100.00;99268.73;1744795;79;21586;-53
2022/08/22 02:11:47;;;;;;;21.42;2.70;;;;;;;19.23;100.00;99277.46;1743244;79;21157;-52
2022/08/22 02:14:22;;;;;;;23.57;2.42;;;;;;;19.17;100.00;99279.89;1741780;79;22219;-51
2022/08/22 02:16:57;;;;;;;19.20;2.62;;;;;;;19.11;100.00;99284.05;1745630;79;21029;-52
2022/08/22 02:19:40;;;;;;;14.93;1.55;;;;;;;19.10;100.00;99280.95;1751910;79;21209;-52
2022/08/22 02:22:35;;;;;;;11.85;1.10;;;;;;;19.08;100.00;99287.55;1692651;82;21700;-52
2022/08/22 02:25:24;;;;;;;16.75;1.67;;;;;;;19.06;100.00;99289.54;1703098;81;21371;-52
2022/08/22 02:28:03;;;;;;;18.70;1.10;;;;;;;19.06;100.00;99288.18;1706403;81;21101;-52
2022/08/22 02:30:53;;;;;;;18.32;2.20;;;;;;;19.06;100.00;99284.09;1706053;81;21104;-52
2022/08/22 02:33:40;;;;;;;24.43;1.75;;;;;;;19.09;100.00;99289.27;1702208;81;21549;-52
2022/08/22 02:36:12;;;;;;;23.57;1.98;;;;;;;19.08;100.00;99288.41;1710942;81;21435;-51
2022/08/22 02:39:04;;;;;;;15.55;1.77;;;;;;;19.10;100.00;99292.37;1704960;81;21496;-53
2022/08/22 02:41:58;;;;;;;14.75;1.75;;;;;;;19.10;100.00;99286.42;1687965;82;21126;-52
2022/08/22 02:44:30;;;;;;;23.15;2.62;;;;;;;19.10;100.00;99293.73;1690300;82;21125;-52
2022/08/22 02:47:28;;;;;;;19.52;1.35;;;;;;;19.10;100.00;99301.92;1688036;82;21773;-53
2022/08/22 02:50:26;;;;;;;12.43;1.10;;;;;;;19.09;100.00;99296.95;1694973;82;21074;-53
2022/08/22 02:52:58;;;;;;;18.85;2.05;;;;;;;19.10;100.00;99304.15;1690737;82;21523;-52
2022/08/22 02:55:55;;;;;;;13.53;2.20;;;;;;;19.11;100.00;99307.73;1693171;82;21061;-52
2022/08/22 02:58:48;;;;;;;10.00;1.35;;;;;;;19.11;100.00;99305.02;1694657;82;21042;-52
2022/08/22 03:01:26;;;;;;;8.80;1.22;;;;;;;19.09;100.00;99309.73;1688432;82;21159;-52
2022/08/22 03:04:22;;;;;;;17.80;1.70;;;;;;;19.06;100.00;99314.95;1698701;82;21410;-53
2022/08/22 03:07:06;;;;;;;12.58;1.20;;;;;;;19.05;100.00;99313.76;1660280;82;21390;-52
2022/08/22 03:09:44;;;;;;;17.35;1.25;;;;;;;19.03;100.00;99311.66;1697198;82;20970;-52
2022/08/22 03:12:21;;;;;;;16.50;1.22;;;;;;;19.00;100.00;99311.42;1697118;82;20981;-53
2022/08/22 03:15:08;;;;;;;13.88;1.22;;;;;;;18.97;100.00;99317.14;1698099;82;21065;-53
2022/08/22 03:17:51;;;;;;;14.80;1.40;;;;;;;18.96;100.00;99322.27;1692987;82;20946;-52
2022/08/22 03:20:52;;;;;;;19.10;1.12;;;;;;;18.94;100.00;99314.72;1702941;82;20899;-53
2022/08/22 03:23:46;;;;;;;11.85;1.47;;;;;;;18.94;100.00;99314.72;1692645;82;20947;-53
2022/08/22 03:26:45;;;;;;;14.53;1.67;;;;;;;18.93;100.00;99320.30;1695910;82;21395;-53
2022/08/22 03:29:19;;;;;;;12.85;1.07;;;;;;;18.92;100.00;99319.93;1693486;82;21237;-53
2022/08/22 03:32:10;;;;;;;10.13;1.57;;;;;;;18.89;100.00;99334.20;1676525;83;21454;-53
2022/08/22 03:34:40;;;;;;;8.93;1.00;;;;;;;18.85;100.00;99332.76;1694526;82;20892;-52
2022/08/22 03:37:17;;;;;;;10.13;1.10;;;;;;;18.84;100.00;99326.94;1670433;82;20982;-52
2022/08/22 03:39:59;;;;;;;12.53;1.50;;;;;;;18.85;100.00;99331.89;1719402;81;20894;-53
2022/08/22 03:42:59;;;;;;;12.45;1.17;;;;;;;18.86;100.00;99329.53;1697563;82;21323;-53
2022/08/22 03:45:47;;;;;;;11.60;1.82;;;;;;;18.86;100.00;99331.77;1717507;81;20958;-52
2022/08/22 03:48:38;;;;;;;8.03;1.77;;;;;;;18.86;100.00;99338.58;1697163;81;20902;-53
2022/08/22 03:51:39;;;;;;;10.28;0.90;;;;;;;18.86;100.00;99344.53;1679382;82;21366;-53
2022/08/22 03:54:31;;;;;;;10.93;1.10;;;;;;;18.86;100.00;99348.62;1712905;81;20969;-53
2022/08/22 03:57:13;;;;;;;12.90;1.52;;;;;;;18.84;100.00;99346.52;1693186;82;21157;-53
2022/08/22 04:00:12;;;;;;;14.00;1.32;;;;;;;18.82;100.00;99341.70;1694015;82;21083;-52
2022/08/22 04:03:14;;;;;;;11.18;1.37;;;;;;;18.82;100.00;99339.84;1696420;82;21106;-52
2022/08/22 04:06:18;;;;;;;15.83;1.20;;;;;;;18.86;100.00;99350.85;1690642;82;21771;-53
2022/08/22 04:09:20;;;;;;;9.15;1.07;;;;;;;18.96;100.00;99351.41;1669227;83;21500;-53
2022/08/22 04:12:12;;;;;;;8.98;1.07;;;;;;;19.06;100.00;99350.91;1693117;82;21318;-54
2022/08/22 04:15:13;;;;;;;9.28;1.10;;;;;;;19.19;100.00;99352.42;1695844;82;20972;-53
2022/08/22 04:18:03;;;;;;;17.65;1.27;;;;;;;19.41;100.00;99358.16;1692361;82;21011;-52
2022/08/22 04:21:05;;;;;;;12.60;1.80;;;;;;;19.67;100.00;99363.13;1692739;82;21079;-53
2022/08/22 04:24:00;;;;;;;13.03;1.82;;;;;;;19.95;100.00;99353.63;1693664;82;21448;-52
2022/08/22 04:26:44;;;;;;;18.23;2.12;;;;;;;20.24;100.00;99353.64;1687856;82;21787;-52
2022/08/22 04:29:26;;;;;;;12.90;2.30;;;;;;;20.49;100.00;99359.55;1691105;82;21561;-53
2022/08/22 04:32:35;;;;;;;11.55;1.30;;;;;;;20.71;100.00;99356.47;1694384;82;21146;-52
2022/08/22 04:35:26;;;;;;;15.00;1.95;;;;;;;20.92;100.00;99361.25;1672464;83;21469;-52
2022/08/22 04:38:13;;;;;;;9.48;1.17;;;;;;;21.12;100.00;99353.80;1692331;82;21150;-52
2022/08/22 04:40:54;;;;;;;14.78;1.30;;;;;;;21.25;100.00;99358.98;1684746;82;21504;-52
2022/08/22 04:43:47;;;;;;;11.48;1.37;;;;;;;21.31;100.00;99366.59;1680369;84;21519;-53
2022/08/22 04:46:39;;;;;;;12.98;1.35;;;;;;;21.28;100.00;99368.24;1672179;84;21120;-52
2022/08/22 04:49:35;;;;;;;11.08;1.15;;;;;;;21.20;100.00;99359.92;1679241;83;21136;-52
2022/08/22 04:52:13;;;;;;;15.03;1.25;;;;;;;21.09;100.00;99357.73;1675623;82;21046;-53
2022/08/22 04:55:12;;;;;;;8.15;1.00;;;;;;;21.01;100.00;99358.95;1626309;83;21509;-52
2022/08/22 04:58:26;;;;;;;10.23;1.45;;;;;;;20.98;100.00;99361.14;1678318;82;21544;-52
2022/08/22 05:01:01;;;;;;;21.12;2.12;;;;;;;20.95;100.00;99366.91;1678478;82;21031;-53
2022/08/22 05:03:28;;;;;;;14.45;2.00;;;;;;;20.93;100.00;99364.31;1675356;83;21510;-52
2022/08/22 05:05:57;;;;;;;11.18;1.20;;;;;;;20.94;100.00;99364.67;1669858;82;21583;-52
2022/08/22 05:08:26;;;;;;;5.33;1.00;;;;;;;20.95;100.00;99366.40;1675778;83;22318;-53
2022/08/22 05:10:53;;;;;;;11.60;1.50;;;;;;;20.97;100.00;99371.22;1676203;83;21042;-51
2022/08/22 05:13:33;;;;;;;8.00;1.20;;;;;;;20.99;100.00;99369.71;1678745;83;21797;-52
2022/08/22 05:16:02;;;;;;;12.00;1.32;;;;;;;20.96;100.00;99369.50;1678417;84;21525;-51
2022/08/22 05:18:33;;;;;;;14.98;2.20;;;;;;;20.96;100.00;99373.59;1673998;84;21099;-52
2022/08/22 05:21:01;;;;;;;13.25;1.00;;;;;;;20.96;100.00;99374.97;1672592;82;21444;-51
2022/08/22 05:23:38;;;;;;;12.15;1.37;;;;;;;20.98;100.00;99368.84;1678396;83;21058;-52
2022/08/22 05:26:05;;;;;;;13.80;0.98;;;;;;;21.01;100.00;99375.91;1679616;82;21041;-52
2022/08/22 05:28:43;;;;;;;12.55;1.22;;;;;;;21.05;100.00;99374.08;1668416;83;21085;-53
2022/08/22 05:31:14;;;;;;;6.67;1.02;;;;;;;21.09;100.00;99379.62;1706425;82;21041;-53
2022/08/22 05:33:44;;;;;;;10.38;1.12;;;;;;;21.12;100.00;99382.03;1690664;82;21243;-53
2022/08/22 05:36:27;;;;;;;11.25;1.20;;;;;;;21.10;100.00;99384.05;1679104;83;21085;-53
2022/08/22 05:39:02;;;;;;;16.90;1.57;;;;;;;21.06;100.00;99386.75;1679266;83;21449;-53
2022/08/22 05:41:34;;;;;;;18.55;1.82;;;;;;;21.01;100.00;99385.48;1666421;83;21139;-53
2022/08/22 05:44:00;;;;;;;9.83;0.90;;;;;;;20.98;100.00;99385.77;1704206;81;21092;-53
2022/08/22 05:46:41;;;;;;;7.12;1.02;;;;;;;20.95;100.00;99384.69;1705037;81;22217;-52
2022/08/22 05:49:35;;;;;;;10.55;0.85;;;;;;;20.93;100.00;99387.56;1703409;81;21537;-53
2022/08/22 05:52:28;;;;;;;12.88;1.32;;;;;;;20.91;100.00;99391.48;1698301;81;21121;-53
2022/08/22 05:55:38;;;;;;;8.53;1.05;;;;;;;20.89;100.00;99388.89;1680085;84;21079;-53
2022/08/22 05:58:42;;;;;;;10.72;1.00;;;;;;;20.86;100.00;99396.02;1680406;84;23462;-53
2022/08/22 06:01:28;;;;;;;12.23;1.33;;;;;;;20.82;100.00;99386.89;1684009;84;21140;-53
2022/08/22 06:04:07;;;;;;;9.40;1.10;;;;;;;20.83;100.00;99396.33;1676827;83;21107;-53
2022/08/22 06:06:42;;;;;;;6.40;0.88;;;;;;;20.83;100.00;99399.06;1682574;84;20925;-53
2022/08/22 06:09:19;;;;;;;13.88;1.12;;;;;;;20.83;100.00;99396.33;1683795;84;20978;-52
2022/08/22 06:11:57;;;;;;;15.35;1.62;;;;;;;20.82;100.00;99393.23;1679154;84;20957;-53
2022/08/22 06:14:41;;;;;;;13.80;1.40;;;;;;;20.81;100.00;99399.70;1678579;82;21145;-53
2022/08/22 06:17:20;;;;;;;16.50;1.32;;;;;;;20.81;100.00;99398.84;1684219;84;20934;-53
2022/08/22 06:19:49;;;;;;;11.45;0.90;;;;;;;20.84;100.00;99393.09;1680106;83;21000;-54
2022/08/22 06:22:23;;;;;;;11.00;1.22;;;;;;;20.88;100.00;99393.13;1681302;84;20984;-54
2022/08/22 06:24:50;;;;;;;10.48;1.10;;;;;;;20.87;100.00;99396.38;1679166;84;21408;-53
2022/08/22 06:27:21;;;;;;;14.25;1.15;;;;;;;20.85;100.00;99390.68;1685945;84;22308;-53
2022/08/22 06:29:52;;;;;;;14.35;0.90;;;;;;;20.82;100.00;99397.33;1683083;84;20929;-53
2022/08/22 06:32:22;;;;;;;11.15;1.20;;;;;;;20.87;100.00;99396.38;1678930;82;20985;-52
2022/08/22 06:34:49;;;;;;;9.98;0.85;;;;;;;20.92;100.00;99395.95;1664375;84;20989;-53
2022/08/22 06:37:27;;;;;;;6.15;1.00;;;;;;;20.99;100.00;99386.13;1684470;82;20957;-52
2022/08/22 06:39:53;;;;;;;16.77;0.80;;;;;;;21.07;100.00;99391.22;1678860;83;21148;-53
2022/08/22 06:42:27;;;;;;;10.82;1.12;;;;;;;21.17;100.00;99386.22;1678934;83;20918;-52
2022/08/22 06:45:02;;;;;;;13.53;0.77;;;;;;;21.30;100.00;99378.55;1683741;83;21112;-52
2022/08/22 06:47:40;;;;;;;9.00;0.90;;;;;;;21.41;100.00;99379.22;1673211;82;21094;-51
2022/08/22 06:50:12;;;;;;;7.47;0.80;;;;;;;21.50;100.00;99389.27;1671500;83;21081;-52
2022/08/22 06:52:51;;;;;;;8.85;0.72;;;;;;;21.57;100.00;99392.25;1681510;83;21136;-52
2022/08/22 06:55:17;;;;;;;9.48;1.07;;;;;;;21.66;100.00;99385.86;1674598;83;21090;-52
2022/08/22 06:58:04;;;;;;;6.92;0.88;;;;;;;21.77;100.00;99387.53;1667317;83;21124;-54
2022/08/22 07:00:33;;;;;;;9.63;0.90;;;;;;;21.87;100.00;99385.06;1702762;82;21518;-52
2022/08/22 07:03:08;;;;;;;14.58;1.00;;;;;;;21.99;100.00;99380.77;1728918;81;21042;-53
2022/08/22 07:05:37;;;;;;;10.88;0.78;;;;;;;22.09;100.00;99377.45;1721192;80;21488;-53
2022/08/22 07:08:11;;;;;;;13.35;0.80;;;;;;;22.19;100.00;99380.98;1739642;80;21045;-52
2022/08/22 07:10:50;;;;;;;11.63;1.10;;;;;;;22.29;100.00;99372.15;1738317;79;21078;-53
2022/08/22 07:13:18;;;;;;;8.83;1.02;;;;;;;22.39;100.00;99375.67;1730742;80;21719;-53
2022/08/22 07:15:52;;;;;;;9.93;1.10;;;;;;;22.46;100.00;99370.41;1730691;80;21519;-54
2022/08/22 07:18:22;;;;;;;15.08;1.37;;;;;;;22.50;100.00;99373.20;1739489;79;21975;-54
2022/08/22 07:20:55;;;;;;;15.93;2.10;;;;;;;22.56;100.00;99371.19;1738708;79;21033;-53
2022/08/22 07:23:39;;;;;;;14.63;0.90;;;;;;;22.64;100.00;99374.85;1736413;79;21045;-56
2022/08/22 07:26:32;;;;;;;11.88;0.72;;;;;;;22.74;100.00;99369.78;1737563;79;21519;-55
2022/08/22 07:29:37;;;;;;;19.37;1.30;;;;;;;22.85;100.00;99366.30;1736629;80;21480;-55
2022/08/22 07:32:12;;;;;;;12.03;0.65;;;;;;;22.94;100.00;99371.34;1736126;79;22318;-54
2022/08/22 07:35:18;;;;;;;7.58;0.60;;;;;;;23.00;100.00;99367.94;1737897;79;21611;-54
2022/08/22 07:38:03;;;;;;;;;;;;;;;23.07;100.00;99366.26;1705201;82;21421;-57
2022/08/22 07:40:57;;;;;;;18.32;0.75;;;;;;;23.15;100.00;99365.44;1693400;82;20252;-54
2022/08/22 07:43:44;;;;;;;5.67;0.70;;;;;;;23.24;100.00;99361.72;1699551;82;21139;-56
2022/08/22 07:46:34;;;;;;;17.00;1.10;;;;;;;23.33;100.00;99365.72;1689684;82;21484;-55
2022/08/22 07:49:21;;;;;;;8.40;0.75;;;;;;;23.43;100.00;99361.98;1687798;82;21148;-54
2022/08/22 07:51:54;;;;;;;17.57;1.10;;;;;;;23.54;100.00;99360.36;1689940;82;21409;-54
2022/08/22 07:54:43;;;;;;;25.05;1.15;;;;;;;23.65;100.00;99359.52;1677477;83;21123;-54
2022/08/22 07:57:17;;;;;;;19.17;0.70;;;;;;;23.74;100.00;99360.41;1692392;82;21115;-53
2022/08/22 07:59:50;;;;;;;17.85;0.90;;;;;;;23.82;100.00;99358.23;1693457;82;22522;-51
2022/08/22 08:02:17;;;;;;;19.45;1.65;;;;;;;23.91;100.00;99351.69;1693777;83;21063;-54
2022/08/22 08:04:44;;;;;;;10.95;0.85;;;;;;;23.99;100.00;99353.94;1688792;82;21067;-54
2022/08/22 08:07:12;;;;;;;12.30;1.10;;;;;;;24.07;100.00;99355.33;1689872;82;21123;-54
2022/08/22 08:09:53;;;;;;;17.17;0.90;;;;;;;24.17;100.00;99355.69;1693102;82;21538;-53
2022/08/22 08:12:22;;;;;;;10.25;0.70;;;;;;;24.26;100.00;99356.08;1664230;82;21776;-54
2022/08/22 08:14:51;;;;;;;9.43;1.00;;;;;;;24.36;100.00;99352.66;1678672;83;21040;-54
2022/08/22 08:17:27;;;;;;;21.20;1.75;;;;;;;24.43;100.00;99353.68;1694686;82;21087;-54
2022/08/22 08:19:54;;;;;;;16.25;1.05;;;;;;;24.51;100.00;99355.05;1695781;82;21290;-53
2022/08/22 08:22:23;;;;;;;16.70;1.42;;;;;;;24.58;100.00;99350.61;1697276;83;21075;-53
2022/08/22 08:24:51;;;;;;;10.93;0.75;;;;;;;24.67;100.00;99348.71;1698620;83;21255;-53
2022/08/22 08:30:15;;;;;;;6.78;0.98;;;;;;;24.82;100.00;99345.59;1696690;83;21079;-53
2022/08/22 08:32:44;;;;;;;11.45;0.62;;;;;;;24.92;100.00;99346.81;1701495;83;21103;-53
2022/08/22 08:35:24;;;;;;;6.83;0.70;;;;;;;24.99;100.00;99351.44;1691489;83;21242;-54
2022/08/22 08:38:06;;;;;;;7.87;0.95;;;;;;;25.05;100.00;99351.24;1691945;83;21109;-53
2022/08/22 08:40:55;;;;;;;13.05;1.27;;;;;;;25.11;100.00;99345.02;1670024;83;21139;-54
2022/08/22 08:43:42;;;;;;;10.15;0.93;;;;;;;25.16;100.00;99349.50;1683320;82;21069;-52
2022/08/22 08:46:38;;;;;;;9.00;1.72;;;;;;;25.26;100.00;99350.17;1663931;84;21475;-53
2022/08/22 08:49:37;;;;;;;14.85;1.35;;;;;;;25.31;100.00;99343.59;1608678;87;21090;-54
2022/08/22 08:52:50;;;;;;;12.73;1.00;;;;;;;25.40;100.00;99349.41;1707204;81;21248;-52
2022/08/22 08:55:42;;;;;;;16.82;1.07;;;;;;;25.51;100.00;99351.79;1721735;81;21070;-54
2022/08/22 08:58:30;;;;;;;12.13;0.80;;;;;;;25.58;100.00;99345.03;1718622;81;21563;-52
2022/08/22 09:01:10;;;;;;;9.98;1.32;;;;;;;25.65;100.00;99350.71;1724459;81;21056;-53
2022/08/22 09:03:55;;;;;;;15.93;0.93;;;;;;;25.69;100.00;99343.27;1720439;81;21061;-53
2022/08/22 09:06:58;;;;;;;20.85;1.30;;;;;;;25.73;100.00;99346.53;1715265;81;21482;-52
2022/08/22 09:10:21;;;;;;;12.90;1.17;;;;;;;25.81;100.00;99343.73;1713839;81;21039;-55
2022/08/22 09:13:25;;;;;;;19.40;1.07;;;;;;;25.92;100.00;99343.34;1717525;81;21081;-53
2022/08/22 09:16:32;;;;;;;19.00;0.80;;;;;;;26.00;100.00;99344.14;1721414;81;21533;-54
2022/08/22 09:19:30;;;;;;;12.75;0.80;;;;;;;26.11;100.00;99337.87;1716846;81;21074;-53
2022/08/22 09:22:22;;;;;;;19.32;1.62;;;;;;;26.23;100.00;99337.77;1721105;81;21862;-55
2022/08/22 09:25:20;;;;;;;14.78;1.07;;;;;;;26.27;100.00;99340.02;1719805;81;21065;-53
2022/08/22 09:28:09;;;;;;;17.15;0.80;;;;;;;26.30;100.00;99341.53;1717638;81;21507;-54
2022/08/22 09:31:16;;;;;;;18.30;0.80;;;;;;;26.31;100.00;99335.84;1726697;81;21377;-55
2022/08/22 09:34:03;;;;;;;18.07;1.30;;;;;;;26.32;100.00;99336.70;1724183;81;21000;-52
2022/08/22 09:37:03;;;;;;;25.55;1.52;;;;;;;26.40;100.00;99341.29;1732499;81;21325;-56
2022/08/22 09:39:42;;;;;;;14.28;0.78;;;;;;;26.50;100.00;99336.38;1663010;83;21144;-55
2022/08/22 09:42:29;;;;;;;13.50;1.60;;;;;;;26.60;100.00;99334.23;1734577;80;20918;-53
2022/08/22 09:45:44;;;;;;;11.53;1.20;;;;;;;26.68;100.00;99337.77;1728541;80;20897;-53
2022/08/22 09:48:46;;;;;;;18.48;1.70;;;;;;;26.77;100.00;99327.51;1732062;80;20932;-55
2022/08/22 09:51:33;;;;;;;24.72;1.67;;;;;;;26.87;100.00;99332.77;1731940;80;21659;-54
2022/08/22 09:54:29;;;;;;;19.37;1.60;;;;;;;26.90;100.00;99333.75;1730981;80;21646;-53
2022/08/22 09:57:21;;;;;;;14.73;1.00;;;;;;;26.94;100.00;99337.37;1731831;80;20927;-53
2022/08/22 10:00:25;;;;;;;20.75;1.87;;;;;;;26.98;100.00;99329.55;1731540;80;21013;-53
2022/08/22 10:03:12;;;;;;;21.40;1.50;;;;;;;26.99;100.00;99329.37;1739980;80;21109;-54
2022/08/22 10:05:56;;;;;;;24.65;2.52;;;;;;;27.05;100.00;99339.65;1728744;80;21251;-54
2022/08/22 10:09:07;;;;;;;21.82;1.00;;;;;;;27.09;100.00;99338.77;1735880;80;21128;-56
2022/08/22 10:11:44;;;;;;;18.92;2.27;;;;;;;27.14;100.00;99344.56;1732666;80;21045;-53
2022/08/22 10:14:24;;;;;;;23.35;2.17;;;;;;;27.17;100.00;99340.05;1728251;80;21470;-53
2022/08/22 10:17:11;;;;;;;27.35;2.35;;;;;;;27.18;100.00;99343.16;1734394;80;21537;-54
2022/08/22 10:19:50;;;;;;;26.95;1.80;;;;;;;27.18;100.00;99337.63;1733980;80;22429;-53
2022/08/22 10:22:39;;;;;;;30.00;1.82;;;;;;;27.22;100.00;99337.56;1728619;80;21041;-54
2022/08/22 10:25:32;;;;;;;15.05;1.20;;;;;;;27.28;100.00;99347.02;1720642;80;21034;-53
2022/08/22 10:28:26;;;;;;;26.65;1.75;;;;;;;27.34;100.00;99339.34;1671322;83;21082;-54
2022/08/22 10:31:04;;;;;;;38.20;1.52;;;;;;;27.39;100.00;99340.47;1687753;82;21077;-55
2022/08/22 10:33:36;;;;;;;32.90;2.67;;;;;;;27.43;100.00;99346.48;1681786;82;21484;-54
2022/08/22 10:36:08;;;;;;;30.00;3.12;;;;;;;27.42;100.00;99347.00;1671911;83;22024;-54
2022/08/22 10:38:53;;;;;;;16.32;1.50;;;;;;;27.40;100.00;99350.48;1676382;83;21089;-53
2022/08/22 10:42:09;;;;;;;24.87;3.25;;;;;;;27.41;100.00;99347.19;1672707;83;21100;-56
2022/08/22 10:44:49;;;;;;;31.35;3.00;;;;;;;27.42;100.00;99350.30;1689174;82;21078;-56
2022/08/22 10:47:22;;;;;;;30.10;2.15;;;;;;;27.46;100.00;99354.41;1699748;82;21071;-54
2022/08/22 10:50:00;;;;;;;29.12;2.42;;;;;;;27.48;100.00;99346.75;1728932;80;26868;-54
2022/08/22 10:52:32;;;;;;;17.55;2.35;;;;;;;27.50;100.00;99346.91;1733528;80;21038;-53
2022/08/22 10:55:16;;;;;;;33.95;2.08;;;;;;;27.49;100.00;99349.85;1731791;80;21527;-54
2022/08/22 10:58:05;;;;;;;37.63;2.98;;;;;;;27.47;100.00;99354.73;1733054;80;21565;-54
2022/08/22 11:00:53;;;;;;;28.45;2.52;;;;;;;27.49;100.00;99354.00;1734278;80;21216;-54
2022/08/22 11:03:42;;;;;;;22.75;2.20;;;;;;;27.54;100.00;99357.62;1733006;79;21120;-54
2022/08/22 11:06:44;;;;;;;41.30;2.83;;;;;;;27.56;100.00;99351.38;1736785;79;21124;-54
2022/08/22 11:09:16;;;;;;;32.53;3.50;;;;;;;27.51;100.00;99358.82;1728028;79;21039;-54
2022/08/22 11:12:23;;;;;;;27.73;2.42;;;;;;;27.50;100.00;99347.42;1736006;80;21072;-54
2022/08/22 11:15:10;;;;;;;29.42;2.00;;;;;;;27.48;100.00;99357.81;1738887;80;21241;-54
2022/08/22 11:18:04;;;;;;;29.05;2.00;;;;;;;27.48;100.00;99357.28;1731688;79;21117;-55
2022/08/22 11:20:56;;;;;;;21.02;1.70;;;;;;;27.48;100.00;99354.52;1734700;80;21140;-53
2022/08/22 11:23:47;;;;;;;35.95;3.85;;;;;;;27.48;100.00;99352.28;1739023;80;21452;-54
2022/08/22 11:26:36;;;;;;;22.42;1.98;;;;;;;27.51;100.00;99353.29;1736389;80;21049;-54
2022/08/22 11:29:23;;;;;;;37.78;3.22;;;;;;;27.54;100.00;99353.47;1731653;79;21719;-54
2022/08/22 11:32:31;;;;;;;44.95;3.92;;;;;;;27.60;100.00;99345.78;1730229;80;21586;-53
2022/08/22 11:35:08;;;;;;;37.65;3.75;;;;;;;27.65;100.00;99346.91;1738463;79;21497;-54
2022/08/22 11:40:34;;;;;;;30.43;2.45;;;;;;;27.79;100.00;99340.52;1863915;75;22434;-55
2022/08/22 11:43:24;;;;;;;38.67;4.00;;;;;;;27.82;100.00;99347.02;1771336;78;21027;-54
2022/08/22 11:45:54;;;;;;;47.90;4.60;;;;;;;27.91;100.00;99345.00;1805757;77;21914;-55
2022/08/22 11:48:58;;;;;;;34.20;2.87;;;;;;;27.97;100.00;99342.00;1783094;78;20928;-55
2022/08/22 11:52:14;;;;;;;56.20;6.85;;;;;;;27.95;100.00;99348.25;1783669;78;21479;-55
2022/08/22 11:56:11;;;;;;;53.90;6.97;;;;;;;28.04;100.00;99340.16;1792308;78;23139;-54
2022/08/22 11:58:45;;;;;;;54.45;5.53;;;;;;;28.03;100.00;99346.74;1755016;79;21021;-55
2022/08/22 12:01:21;;;;;;;60.40;6.20;;;;;;;28.04;100.00;99339.64;1749674;80;21204;-53
2022/08/22 12:04:06;;;;;;;51.58;6.10;;;;;;;28.03;100.00;99332.38;1753879;80;20977;-54
2022/08/22 12:07:02;;;;;;;52.73;7.00;;;;;;;28.02;100.00;99337.58;1748643;80;21013;-54
2022/08/22 12:10:05;;;;;;;68.50;6.03;;;;;;;28.05;100.00;99344.64;1742195;80;21049;-54
2022/08/22 12:12:43;;;;;;;50.08;5.58;;;;;;;28.06;100.00;99340.83;1751124;80;20966;-54
2022/08/22 12:15:40;;;;;;;63.25;6.87;;;;;;;28.08;100.00;99338.17;1750820;80;21779;-54
2022/08/22 12:18:29;;;;;;;59.08;6.87;;;;;;;28.12;100.00;99339.52;1743981;80;22192;-54
2022/08/22 12:21:04;;;;;;;49.83;4.62;;;;;;;28.16;100.00;99339.47;1751065;80;21039;-53
2022/08/22 12:24:23;;;;;;;55.38;6.80;;;;;;;28.20;100.00;99337.17;1747844;80;21642;-53
2022/08/22 12:27:05;;;;;;;56.40;6.05;;;;;;;28.22;100.00;99333.69;1747157;80;21089;-53
2022/08/22 12:29:52;;;;;;;57.38;7.03;;;;;;;28.26;100.00;99328.59;1747190;80;21300;-54
2022/08/22 12:32:47;;;;;;;47.33;4.58;;;;;;;28.29;100.00;99329.60;1745597;80;21447;-55
2022/08/22 12:35:51;;;;;;;54.95;7.50;;;;;;;28.31;100.00;99323.34;1751059;80;21396;-54
2022/08/22 12:38:26;;;;;;;72.00;8.08;;;;;;;28.36;100.00;99336.05;1756290;80;21424;-54
2022/08/22 12:41:30;;;;;;;67.67;7.33;;;;;;;28.41;100.00;99332.19;1748354;80;21069;-54
2022/08/22 12:44:14;;;;;;;61.35;8.60;;;;;;;28.45;100.00;99327.95;1753512;80;22155;-54
2022/08/22 12:47:16;;;;;;;59.00;8.50;;;;;;;28.47;100.00;99333.62;1750309;80;21423;-54
2022/08/22 12:50:18;;;;;;;58.38;10.32;;;;;;;28.47;100.00;99328.09;1751025;80;21431;-54
2022/08/22 12:53:21;;;;;;;75.65;9.33;;;;;;;28.47;100.00;99328.61;1757779;80;21455;-55